Kaministiqua — CFN4612 — position and weather

sailwx.info

Track history (hours):
 
Tides and Currents Weather Stations Pressure Air Temp Water Temp Dewpoint Dewpoint Depression Visibility Wind Speed Wind Dir Waves Ship Positions

Kaministiqua

Last reported at 2016-Aug-26 22:33 UTC. Time now 2016-Aug-26 23:27 UTC.
Position N 46°03' W 073°07'.

Length 223 m; draft 8 m.

Type: Cargo ship. MMSI: 316009457.

Date/timePositionNaut miles runAvg speedWind from/ knotsBaromVisibWave heightAir tempDewpointWater temp
2016-Aug-26 22:33N 46°03' W 073°07'0 0.0
2016-Aug-26 21:33N 46°03' W 073°07'0 0.0
2016-Aug-26 20:33N 46°03' W 073°07'0 0.0
2016-Aug-26 19:34N 46°03' W 073°07'0 0.0
2016-Aug-26 18:34N 46°03' W 073°07'0 0.0
2016-Aug-26 17:34N 46°03' W 073°07'0 0.0
2016-Aug-26 16:33N 46°03' W 073°07'0 0.0
2016-Aug-26 15:33N 46°03' W 073°07'0 0.0
2016-Aug-26 14:33N 46°03' W 073°07'0 0.0
2016-Aug-26 13:33N 46°03' W 073°07'0 0.0
2016-Aug-26 12:33N 46°03' W 073°07'0 0.0
2016-Aug-26 11:33N 46°03' W 073°07'0 0.0
2016-Aug-26 10:33N 46°03' W 073°07'0 0.0
2016-Aug-26 09:33N 46°03' W 073°07'0 0.0
2016-Aug-26 08:33N 46°03' W 073°07'0 0.0
2016-Aug-26 07:34N 46°03' W 073°07'0 0.0
2016-Aug-26 06:33N 46°03' W 073°07'0 0.2
2016-Aug-26 04:34N 46°03' W 073°07'8 8.1
2016-Aug-26 03:33N 45°56' W 073°13'1212.0
2016-Aug-26 02:33N 45°46' W 073°23'1111.1
2016-Aug-26 01:33N 45°37' W 073°30'9 3.8
2016-Aug-25 23:11N 45°27' W 073°30'4 4.2
2016-Aug-25 22:14N 45°24' W 073°34'0 0.5
2016-Aug-25 21:33N 45°24' W 073°34'4 3.7
2016-Aug-25 20:33N 45°25' W 073°40'7 7.0
2016-Aug-25 19:33N 45°23' W 073°49'6 5.5
2016-Aug-25 18:33N 45°19' W 073°55'1 0.9
2016-Aug-25 17:33N 45°18' W 073°56'3 3.2
2016-Aug-25 16:32N 45°15' W 073°58'8 8.2
2016-Aug-25 15:33N 45°14' W 074°09'248 9.2
2016-Aug-24 12:33N 43°14' W 079°13'1 1.4
2016-Aug-24 11:33N 43°13' W 079°13'  
Track history (hours):
 
Tides and Currents Weather Stations Pressure Air Temp Water Temp Dewpoint Dewpoint Depression Visibility Wind Speed Wind Dir Waves Ship Positions

Kaministiqua

Last reported at 2016-Aug-26 22:33 UTC. Time now 2016-Aug-26 23:27 UTC.
Position N 46°03' W 073°07'.

Length 223 m; draft 8 m.

Type: Cargo ship. MMSI: 316009457.

Date/timePositionNaut miles runAvg speedWind from/ knotsBaromVisibWave heightAir tempDewpointWater temp
2016-Aug-26 22:33N 46°03' W 073°07'0 0.0
2016-Aug-26 21:33N 46°03' W 073°07'0 0.0
2016-Aug-26 20:33N 46°03' W 073°07'0 0.0
2016-Aug-26 19:34N 46°03' W 073°07'0 0.0
2016-Aug-26 18:34N 46°03' W 073°07'0 0.0
2016-Aug-26 17:34N 46°03' W 073°07'0 0.0
2016-Aug-26 16:33N 46°03' W 073°07'0 0.0
2016-Aug-26 15:33N 46°03' W 073°07'0 0.0
2016-Aug-26 14:33N 46°03' W 073°07'0 0.0
2016-Aug-26 13:33N 46°03' W 073°07'0 0.0
2016-Aug-26 12:33N 46°03' W 073°07'0 0.0
2016-Aug-26 11:33N 46°03' W 073°07'0 0.0
2016-Aug-26 10:33N 46°03' W 073°07'0 0.0
2016-Aug-26 09:33N 46°03' W 073°07'0 0.0
2016-Aug-26 08:33N 46°03' W 073°07'0 0.0
2016-Aug-26 07:34N 46°03' W 073°07'0 0.0
2016-Aug-26 06:33N 46°03' W 073°07'0 0.2
2016-Aug-26 04:34N 46°03' W 073°07'8 8.1
2016-Aug-26 03:33N 45°56' W 073°13'1212.0
2016-Aug-26 02:33N 45°46' W 073°23'1111.1
2016-Aug-26 01:33N 45°37' W 073°30'9 3.8
2016-Aug-25 23:11N 45°27' W 073°30'4 4.2
2016-Aug-25 22:14N 45°24' W 073°34'0 0.5
2016-Aug-25 21:33N 45°24' W 073°34'4 3.7
2016-Aug-25 20:33N 45°25' W 073°40'7 7.0
2016-Aug-25 19:33N 45°23' W 073°49'6 5.5
2016-Aug-25 18:33N 45°19' W 073°55'1 0.9
2016-Aug-25 17:33N 45°18' W 073°56'3 3.2
2016-Aug-25 16:32N 45°15' W 073°58'8 8.2
2016-Aug-25 15:33N 45°14' W 074°09'248 9.2
2016-Aug-24 12:33N 43°14' W 079°13'1 1.4
2016-Aug-24 11:33N 43°13' W 079°13'  

Dump ship's entire track history